sensor_id;sensor_type;location;lat;lon;timestamp;P1;durP1;ratioP1;P2;durP2;ratioP2
40695;SDS011;40425;51.102;17.208;2023-04-07T00:02:29;19.17;;;12.50;;
40695;SDS011;40425;51.102;17.208;2023-04-07T00:07:32;20.07;;;12.60;;
40695;SDS011;40425;51.102;17.208;2023-04-07T00:12:32;22.53;;;12.30;;
40695;SDS011;40425;51.102;17.208;2023-04-07T00:17:33;15.43;;;10.93;;
40695;SDS011;40425;51.102;17.208;2023-04-07T00:22:34;15.97;;;10.87;;
40695;SDS011;40425;51.102;17.208;2023-04-07T00:27:35;17.97;;;11.53;;
40695;SDS011;40425;51.102;17.208;2023-04-07T00:32:36;22.73;;;11.33;;
40695;SDS011;40425;51.102;17.208;2023-04-07T00:37:37;19.20;;;13.03;;
40695;SDS011;40425;51.102;17.208;2023-04-07T00:42:38;21.53;;;13.07;;
40695;SDS011;40425;51.102;17.208;2023-04-07T00:47:39;19.47;;;13.37;;
40695;SDS011;40425;51.102;17.208;2023-04-07T00:52:40;17.97;;;10.73;;
40695;SDS011;40425;51.102;17.208;2023-04-07T00:57:41;20.90;;;12.27;;
40695;SDS011;40425;51.102;17.208;2023-04-07T01:02:44;22.33;;;13.47;;
40695;SDS011;40425;51.102;17.208;2023-04-07T01:08:08;19.48;;;13.82;;
40695;SDS011;40425;51.102;17.208;2023-04-07T01:13:35;17.67;;;13.23;;
40695;SDS011;40425;51.102;17.208;2023-04-07T01:18:41;22.95;;;14.35;;
40695;SDS011;40425;51.102;17.208;2023-04-07T01:24:04;23.60;;;15.93;;
40695;SDS011;40425;51.102;17.208;2023-04-07T01:29:38;24.90;;;16.23;;
40695;SDS011;40425;51.102;17.208;2023-04-07T01:34:47;20.13;;;15.03;;
40695;SDS011;40425;51.102;17.208;2023-04-07T01:39:49;24.57;;;16.47;;
40695;SDS011;40425;51.102;17.208;2023-04-07T01:44:50;22.00;;;16.97;;
40695;SDS011;40425;51.102;17.208;2023-04-07T01:49:52;31.80;;;17.47;;
40695;SDS011;40425;51.102;17.208;2023-04-07T01:54:54;21.87;;;16.60;;
40695;SDS011;40425;51.102;17.208;2023-04-07T01:59:56;23.93;;;16.73;;
40695;SDS011;40425;51.102;17.208;2023-04-07T02:04:59;22.87;;;15.93;;
40695;SDS011;40425;51.102;17.208;2023-04-07T02:10:04;24.33;;;17.77;;
40695;SDS011;40425;51.102;17.208;2023-04-07T02:15:09;26.17;;;16.87;;
40695;SDS011;40425;51.102;17.208;2023-04-07T02:20:11;25.47;;;17.37;;
40695;SDS011;40425;51.102;17.208;2023-04-07T02:30:25;25.20;;;17.27;;
40695;SDS011;40425;51.102;17.208;2023-04-07T02:35:27;27.27;;;17.13;;
40695;SDS011;40425;51.102;17.208;2023-04-07T02:40:28;22.03;;;15.50;;
40695;SDS011;40425;51.102;17.208;2023-04-07T02:45:29;22.47;;;15.20;;
40695;SDS011;40425;51.102;17.208;2023-04-07T02:50:30;22.10;;;15.27;;
40695;SDS011;40425;51.102;17.208;2023-04-07T02:55:31;21.97;;;16.27;;
40695;SDS011;40425;51.102;17.208;2023-04-07T03:00:32;23.50;;;15.17;;
40695;SDS011;40425;51.102;17.208;2023-04-07T03:05:33;24.37;;;14.80;;
40695;SDS011;40425;51.102;17.208;2023-04-07T03:10:34;24.60;;;15.80;;
40695;SDS011;40425;51.102;17.208;2023-04-07T03:15:35;19.90;;;14.53;;
40695;SDS011;40425;51.102;17.208;2023-04-07T03:20:36;21.33;;;14.43;;
40695;SDS011;40425;51.102;17.208;2023-04-07T03:25:37;21.07;;;14.40;;
40695;SDS011;40425;51.102;17.208;2023-04-07T03:30:38;21.03;;;13.57;;
40695;SDS011;40425;51.102;17.208;2023-04-07T03:35:38;21.20;;;13.63;;
40695;SDS011;40425;51.102;17.208;2023-04-07T03:40:40;21.77;;;14.53;;
40695;SDS011;40425;51.102;17.208;2023-04-07T03:45:41;23.53;;;16.20;;
40695;SDS011;40425;51.102;17.208;2023-04-07T03:50:42;21.17;;;15.13;;
40695;SDS011;40425;51.102;17.208;2023-04-07T03:55:42;25.60;;;16.20;;
40695;SDS011;40425;51.102;17.208;2023-04-07T04:00:44;25.73;;;16.33;;
40695;SDS011;40425;51.102;17.208;2023-04-07T04:05:45;28.10;;;16.00;;
40695;SDS011;40425;51.102;17.208;2023-04-07T04:10:46;28.97;;;16.53;;
40695;SDS011;40425;51.102;17.208;2023-04-07T04:15:46;22.93;;;16.97;;
40695;SDS011;40425;51.102;17.208;2023-04-07T04:20:47;25.50;;;17.00;;
40695;SDS011;40425;51.102;17.208;2023-04-07T04:25:48;26.67;;;15.07;;
40695;SDS011;40425;51.102;17.208;2023-04-07T04:30:49;21.13;;;14.13;;
40695;SDS011;40425;51.102;17.208;2023-04-07T04:35:50;20.03;;;13.83;;
40695;SDS011;40425;51.102;17.208;2023-04-07T04:40:51;20.67;;;14.33;;
40695;SDS011;40425;51.102;17.208;2023-04-07T04:45:52;19.90;;;13.90;;
40695;SDS011;40425;51.102;17.208;2023-04-07T04:50:53;20.93;;;13.80;;
40695;SDS011;40425;51.102;17.208;2023-04-07T04:55:54;21.10;;;14.77;;
40695;SDS011;40425;51.102;17.208;2023-04-07T05:00:55;20.00;;;15.07;;
40695;SDS011;40425;51.102;17.208;2023-04-07T05:05:57;22.60;;;14.93;;
40695;SDS011;40425;51.102;17.208;2023-04-07T05:10:58;22.97;;;14.63;;
40695;SDS011;40425;51.102;17.208;2023-04-07T05:15:58;21.87;;;15.20;;
40695;SDS011;40425;51.102;17.208;2023-04-07T05:21:00;21.00;;;14.47;;
40695;SDS011;40425;51.102;17.208;2023-04-07T05:26:01;23.83;;;15.23;;
40695;SDS011;40425;51.102;17.208;2023-04-07T05:31:02;20.43;;;14.03;;
40695;SDS011;40425;51.102;17.208;2023-04-07T05:36:02;23.53;;;15.67;;
40695;SDS011;40425;51.102;17.208;2023-04-07T05:41:04;20.33;;;14.70;;
40695;SDS011;40425;51.102;17.208;2023-04-07T05:46:04;19.83;;;14.60;;
40695;SDS011;40425;51.102;17.208;2023-04-07T05:51:05;20.53;;;13.87;;
40695;SDS011;40425;51.102;17.208;2023-04-07T05:56:06;21.63;;;14.40;;
40695;SDS011;40425;51.102;17.208;2023-04-07T06:01:07;22.40;;;14.70;;
40695;SDS011;40425;51.102;17.208;2023-04-07T06:06:09;20.67;;;15.27;;
40695;SDS011;40425;51.102;17.208;2023-04-07T06:11:10;19.33;;;14.80;;
40695;SDS011;40425;51.102;17.208;2023-04-07T06:16:11;22.87;;;15.57;;
40695;SDS011;40425;51.102;17.208;2023-04-07T06:21:12;21.67;;;15.20;;
40695;SDS011;40425;51.102;17.208;2023-04-07T06:26:12;21.37;;;15.00;;
40695;SDS011;40425;51.102;17.208;2023-04-07T06:31:13;20.10;;;14.33;;
40695;SDS011;40425;51.102;17.208;2023-04-07T06:36:15;18.10;;;13.63;;
40695;SDS011;40425;51.102;17.208;2023-04-07T06:41:16;20.13;;;13.73;;
40695;SDS011;40425;51.102;17.208;2023-04-07T06:46:18;20.87;;;13.63;;
40695;SDS011;40425;51.102;17.208;2023-04-07T06:51:19;22.53;;;15.40;;
40695;SDS011;40425;51.102;17.208;2023-04-07T06:56:21;28.37;;;15.27;;
40695;SDS011;40425;51.102;17.208;2023-04-07T07:01:22;24.17;;;15.53;;
40695;SDS011;40425;51.102;17.208;2023-04-07T07:06:23;24.60;;;14.93;;
40695;SDS011;40425;51.102;17.208;2023-04-07T07:11:23;20.23;;;13.97;;
40695;SDS011;40425;51.102;17.208;2023-04-07T07:16:24;21.53;;;13.27;;
40695;SDS011;40425;51.102;17.208;2023-04-07T07:21:25;16.93;;;13.03;;
40695;SDS011;40425;51.102;17.208;2023-04-07T07:26:26;20.53;;;13.57;;
40695;SDS011;40425;51.102;17.208;2023-04-07T07:31:27;17.47;;;13.10;;
40695;SDS011;40425;51.102;17.208;2023-04-07T07:36:30;19.33;;;13.13;;
40695;SDS011;40425;51.102;17.208;2023-04-07T07:41:31;18.00;;;12.00;;
40695;SDS011;40425;51.102;17.208;2023-04-07T07:46:32;18.27;;;12.97;;
40695;SDS011;40425;51.102;17.208;2023-04-07T07:51:33;18.23;;;12.27;;
40695;SDS011;40425;51.102;17.208;2023-04-07T07:56:34;16.17;;;12.33;;
40695;SDS011;40425;51.102;17.208;2023-04-07T08:01:35;18.90;;;11.87;;
40695;SDS011;40425;51.102;17.208;2023-04-07T08:06:36;16.67;;;12.37;;
40695;SDS011;40425;51.102;17.208;2023-04-07T08:11:37;16.80;;;12.07;;
40695;SDS011;40425;51.102;17.208;2023-04-07T08:16:38;15.90;;;11.80;;
40695;SDS011;40425;51.102;17.208;2023-04-07T08:21:39;14.63;;;11.27;;
40695;SDS011;40425;51.102;17.208;2023-04-07T08:26:40;18.80;;;11.43;;
40695;SDS011;40425;51.102;17.208;2023-04-07T08:31:41;17.37;;;11.87;;
40695;SDS011;40425;51.102;17.208;2023-04-07T08:36:41;15.90;;;11.03;;
40695;SDS011;40425;51.102;17.208;2023-04-07T08:41:42;15.03;;;11.43;;
40695;SDS011;40425;51.102;17.208;2023-04-07T08:46:44;16.07;;;11.13;;
40695;SDS011;40425;51.102;17.208;2023-04-07T08:51:48;13.57;;;10.20;;
40695;SDS011;40425;51.102;17.208;2023-04-07T08:56:50;15.30;;;10.43;;
40695;SDS011;40425;51.102;17.208;2023-04-07T09:01:51;15.60;;;11.47;;
40695;SDS011;40425;51.102;17.208;2023-04-07T09:06:53;17.07;;;11.33;;
40695;SDS011;40425;51.102;17.208;2023-04-07T09:11:54;15.93;;;11.77;;
40695;SDS011;40425;51.102;17.208;2023-04-07T09:16:55;15.23;;;10.73;;
40695;SDS011;40425;51.102;17.208;2023-04-07T09:21:56;16.07;;;12.37;;
40695;SDS011;40425;51.102;17.208;2023-04-07T09:27:10;13.20;;;10.33;;
40695;SDS011;40425;51.102;17.208;2023-04-07T09:32:49;16.07;;;11.97;;
40695;SDS011;40425;51.102;17.208;2023-04-07T09:37:43;16.70;;;11.20;;
40695;SDS011;40425;51.102;17.208;2023-04-07T09:42:45;16.57;;;12.20;;
40695;SDS011;40425;51.102;17.208;2023-04-07T09:47:47;16.57;;;12.70;;
40695;SDS011;40425;51.102;17.208;2023-04-07T09:52:48;21.47;;;12.97;;
40695;SDS011;40425;51.102;17.208;2023-04-07T09:57:52;18.17;;;12.73;;
40695;SDS011;40425;51.102;17.208;2023-04-07T10:02:54;22.77;;;13.57;;
40695;SDS011;40425;51.102;17.208;2023-04-07T10:07:56;16.23;;;11.60;;
40695;SDS011;40425;51.102;17.208;2023-04-07T10:12:57;18.63;;;12.67;;
40695;SDS011;40425;51.102;17.208;2023-04-07T10:17:58;15.83;;;11.57;;
40695;SDS011;40425;51.102;17.208;2023-04-07T10:23:03;17.23;;;12.57;;
40695;SDS011;40425;51.102;17.208;2023-04-07T10:28:14;21.63;;;14.07;;
40695;SDS011;40425;51.102;17.208;2023-04-07T10:33:16;20.10;;;13.30;;
40695;SDS011;40425;51.102;17.208;2023-04-07T10:38:17;18.97;;;13.83;;
40695;SDS011;40425;51.102;17.208;2023-04-07T10:43:37;18.27;;;13.47;;
40695;SDS011;40425;51.102;17.208;2023-04-07T10:48:40;21.73;;;13.30;;
40695;SDS011;40425;51.102;17.208;2023-04-07T10:54:13;21.60;;;13.50;;
40695;SDS011;40425;51.102;17.208;2023-04-07T10:59:21;18.05;;;13.45;;
40695;SDS011;40425;51.102;17.208;2023-04-07T11:04:34;21.33;;;14.83;;
40695;SDS011;40425;51.102;17.208;2023-04-07T11:09:37;20.33;;;13.70;;
40695;SDS011;40425;51.102;17.208;2023-04-07T11:14:38;21.33;;;13.80;;
40695;SDS011;40425;51.102;17.208;2023-04-07T11:19:50;20.43;;;14.00;;
40695;SDS011;40425;51.102;17.208;2023-04-07T11:24:52;23.80;;;15.17;;
40695;SDS011;40425;51.102;17.208;2023-04-07T11:29:53;24.07;;;14.43;;
40695;SDS011;40425;51.102;17.208;2023-04-07T11:34:54;24.50;;;15.87;;
40695;SDS011;40425;51.102;17.208;2023-04-07T11:39:57;24.77;;;15.50;;
40695;SDS011;40425;51.102;17.208;2023-04-07T11:44:58;33.60;;;20.57;;
40695;SDS011;40425;51.102;17.208;2023-04-07T11:50:00;17.03;;;12.90;;
40695;SDS011;40425;51.102;17.208;2023-04-07T11:55:01;27.73;;;16.77;;
40695;SDS011;40425;51.102;17.208;2023-04-07T12:00:09;20.53;;;14.03;;
40695;SDS011;40425;51.102;17.208;2023-04-07T12:05:11;20.20;;;14.00;;
40695;SDS011;40425;51.102;17.208;2023-04-07T12:10:19;19.83;;;13.53;;
40695;SDS011;40425;51.102;17.208;2023-04-07T12:15:21;19.67;;;13.67;;
40695;SDS011;40425;51.102;17.208;2023-04-07T12:20:22;20.30;;;13.90;;
40695;SDS011;40425;51.102;17.208;2023-04-07T12:25:23;19.70;;;13.43;;
40695;SDS011;40425;51.102;17.208;2023-04-07T12:30:24;22.87;;;13.73;;
40695;SDS011;40425;51.102;17.208;2023-04-07T12:35:25;19.83;;;13.10;;
40695;SDS011;40425;51.102;17.208;2023-04-07T12:40:25;21.80;;;13.80;;
40695;SDS011;40425;51.102;17.208;2023-04-07T12:45:28;20.07;;;14.07;;
40695;SDS011;40425;51.102;17.208;2023-04-07T12:50:30;23.97;;;16.57;;
40695;SDS011;40425;51.102;17.208;2023-04-07T12:55:31;21.07;;;14.30;;
40695;SDS011;40425;51.102;17.208;2023-04-07T13:00:32;26.73;;;16.37;;
40695;SDS011;40425;51.102;17.208;2023-04-07T13:05:33;22.37;;;15.60;;
40695;SDS011;40425;51.102;17.208;2023-04-07T13:10:34;44.40;;;24.40;;
40695;SDS011;40425;51.102;17.208;2023-04-07T13:15:35;20.40;;;15.13;;
40695;SDS011;40425;51.102;17.208;2023-04-07T13:20:38;23.43;;;16.17;;
40695;SDS011;40425;51.102;17.208;2023-04-07T13:25:38;24.20;;;14.60;;
40695;SDS011;40425;51.102;17.208;2023-04-07T13:30:40;20.07;;;14.90;;
40695;SDS011;40425;51.102;17.208;2023-04-07T13:35:41;21.07;;;14.53;;
40695;SDS011;40425;51.102;17.208;2023-04-07T13:40:42;19.80;;;14.30;;
40695;SDS011;40425;51.102;17.208;2023-04-07T13:45:43;22.23;;;15.40;;
40695;SDS011;40425;51.102;17.208;2023-04-07T13:50:45;21.87;;;15.30;;
40695;SDS011;40425;51.102;17.208;2023-04-07T13:55:46;21.90;;;14.77;;
40695;SDS011;40425;51.102;17.208;2023-04-07T14:00:47;26.97;;;17.30;;
40695;SDS011;40425;51.102;17.208;2023-04-07T14:05:48;22.47;;;15.63;;
40695;SDS011;40425;51.102;17.208;2023-04-07T14:10:49;25.13;;;16.43;;
40695;SDS011;40425;51.102;17.208;2023-04-07T14:15:50;24.43;;;15.93;;
40695;SDS011;40425;51.102;17.208;2023-04-07T14:20:52;23.70;;;16.70;;
40695;SDS011;40425;51.102;17.208;2023-04-07T14:25:53;22.73;;;14.90;;
40695;SDS011;40425;51.102;17.208;2023-04-07T14:30:54;22.87;;;15.17;;
40695;SDS011;40425;51.102;17.208;2023-04-07T14:35:55;23.63;;;15.40;;
40695;SDS011;40425;51.102;17.208;2023-04-07T14:40:56;30.97;;;19.40;;
40695;SDS011;40425;51.102;17.208;2023-04-07T14:45:58;31.47;;;19.13;;
40695;SDS011;40425;51.102;17.208;2023-04-07T14:50:59;27.40;;;17.70;;
40695;SDS011;40425;51.102;17.208;2023-04-07T14:55:59;21.43;;;14.67;;
40695;SDS011;40425;51.102;17.208;2023-04-07T15:01:04;19.20;;;13.30;;
40695;SDS011;40425;51.102;17.208;2023-04-07T15:06:10;17.80;;;13.03;;
40695;SDS011;40425;51.102;17.208;2023-04-07T15:11:12;27.30;;;17.10;;
40695;SDS011;40425;51.102;17.208;2023-04-07T15:16:13;28.00;;;17.63;;
40695;SDS011;40425;51.102;17.208;2023-04-07T15:21:15;32.03;;;18.33;;
40695;SDS011;40425;51.102;17.208;2023-04-07T15:26:16;26.77;;;17.23;;
40695;SDS011;40425;51.102;17.208;2023-04-07T15:31:17;25.97;;;17.03;;
40695;SDS011;40425;51.102;17.208;2023-04-07T15:36:20;29.07;;;17.93;;
40695;SDS011;40425;51.102;17.208;2023-04-07T15:41:21;21.07;;;14.27;;
40695;SDS011;40425;51.102;17.208;2023-04-07T15:46:22;23.07;;;15.73;;
40695;SDS011;40425;51.102;17.208;2023-04-07T15:51:23;27.47;;;17.63;;
40695;SDS011;40425;51.102;17.208;2023-04-07T15:56:26;24.93;;;16.70;;
40695;SDS011;40425;51.102;17.208;2023-04-07T16:01:27;21.33;;;13.87;;
40695;SDS011;40425;51.102;17.208;2023-04-07T16:06:28;20.77;;;12.83;;
40695;SDS011;40425;51.102;17.208;2023-04-07T16:11:30;18.27;;;11.70;;
40695;SDS011;40425;51.102;17.208;2023-04-07T16:16:31;19.03;;;12.10;;
40695;SDS011;40425;51.102;17.208;2023-04-07T16:21:35;16.60;;;12.33;;
40695;SDS011;40425;51.102;17.208;2023-04-07T16:26:36;19.53;;;13.23;;
40695;SDS011;40425;51.102;17.208;2023-04-07T16:31:36;22.63;;;15.07;;
40695;SDS011;40425;51.102;17.208;2023-04-07T16:36:37;21.80;;;14.17;;
40695;SDS011;40425;51.102;17.208;2023-04-07T16:41:38;19.53;;;12.70;;
40695;SDS011;40425;51.102;17.208;2023-04-07T16:46:39;18.20;;;12.87;;
40695;SDS011;40425;51.102;17.208;2023-04-07T16:51:41;18.53;;;13.87;;
40695;SDS011;40425;51.102;17.208;2023-04-07T16:56:41;17.40;;;12.47;;
40695;SDS011;40425;51.102;17.208;2023-04-07T17:01:42;17.50;;;12.00;;
40695;SDS011;40425;51.102;17.208;2023-04-07T17:06:43;15.53;;;10.90;;
40695;SDS011;40425;51.102;17.208;2023-04-07T17:11:44;21.53;;;12.77;;
40695;SDS011;40425;51.102;17.208;2023-04-07T17:16:45;17.10;;;12.27;;
40695;SDS011;40425;51.102;17.208;2023-04-07T17:21:46;16.73;;;12.07;;
40695;SDS011;40425;51.102;17.208;2023-04-07T17:26:47;19.03;;;12.30;;
40695;SDS011;40425;51.102;17.208;2023-04-07T17:31:48;18.37;;;11.80;;
40695;SDS011;40425;51.102;17.208;2023-04-07T17:36:49;19.30;;;13.43;;
40695;SDS011;40425;51.102;17.208;2023-04-07T17:41:50;18.47;;;13.17;;
40695;SDS011;40425;51.102;17.208;2023-04-07T17:46:51;17.07;;;12.43;;
40695;SDS011;40425;51.102;17.208;2023-04-07T17:51:52;16.70;;;13.33;;
40695;SDS011;40425;51.102;17.208;2023-04-07T17:56:54;17.07;;;12.70;;
40695;SDS011;40425;51.102;17.208;2023-04-07T18:01:56;24.10;;;17.80;;
40695;SDS011;40425;51.102;17.208;2023-04-07T18:06:57;17.43;;;13.43;;
40695;SDS011;40425;51.102;17.208;2023-04-07T18:11:59;17.97;;;12.93;;
40695;SDS011;40425;51.102;17.208;2023-04-07T18:17:01;43.30;;;29.33;;
40695;SDS011;40425;51.102;17.208;2023-04-07T18:22:02;25.10;;;19.33;;
40695;SDS011;40425;51.102;17.208;2023-04-07T18:27:03;26.17;;;19.10;;
40695;SDS011;40425;51.102;17.208;2023-04-07T18:32:04;20.90;;;15.30;;
40695;SDS011;40425;51.102;17.208;2023-04-07T18:37:05;19.23;;;14.77;;
40695;SDS011;40425;51.102;17.208;2023-04-07T18:42:06;17.17;;;12.43;;
40695;SDS011;40425;51.102;17.208;2023-04-07T18:47:07;15.80;;;12.17;;
40695;SDS011;40425;51.102;17.208;2023-04-07T18:52:08;15.07;;;11.50;;
40695;SDS011;40425;51.102;17.208;2023-04-07T18:57:09;15.63;;;12.83;;
40695;SDS011;40425;51.102;17.208;2023-04-07T19:02:11;15.07;;;11.83;;
40695;SDS011;40425;51.102;17.208;2023-04-07T19:07:11;16.33;;;11.97;;
40695;SDS011;40425;51.102;17.208;2023-04-07T19:12:12;15.63;;;11.40;;
40695;SDS011;40425;51.102;17.208;2023-04-07T19:17:13;16.47;;;12.27;;
40695;SDS011;40425;51.102;17.208;2023-04-07T19:22:14;15.07;;;11.07;;
40695;SDS011;40425;51.102;17.208;2023-04-07T19:27:15;17.80;;;12.07;;
40695;SDS011;40425;51.102;17.208;2023-04-07T19:32:16;15.90;;;12.70;;
40695;SDS011;40425;51.102;17.208;2023-04-07T19:37:17;14.57;;;11.67;;
40695;SDS011;40425;51.102;17.208;2023-04-07T19:42:18;16.13;;;12.03;;
40695;SDS011;40425;51.102;17.208;2023-04-07T19:47:19;16.10;;;12.20;;
40695;SDS011;40425;51.102;17.208;2023-04-07T19:52:20;15.77;;;11.60;;
40695;SDS011;40425;51.102;17.208;2023-04-07T19:57:21;14.30;;;11.67;;
40695;SDS011;40425;51.102;17.208;2023-04-07T20:02:22;15.43;;;11.37;;
40695;SDS011;40425;51.102;17.208;2023-04-07T20:07:23;15.53;;;11.23;;
40695;SDS011;40425;51.102;17.208;2023-04-07T20:12:24;18.83;;;13.33;;
40695;SDS011;40425;51.102;17.208;2023-04-07T20:17:25;20.70;;;15.10;;
40695;SDS011;40425;51.102;17.208;2023-04-07T20:22:26;17.77;;;13.67;;
40695;SDS011;40425;51.102;17.208;2023-04-07T20:27:27;15.90;;;12.63;;
40695;SDS011;40425;51.102;17.208;2023-04-07T20:32:27;19.73;;;15.10;;
40695;SDS011;40425;51.102;17.208;2023-04-07T20:37:28;20.97;;;14.63;;
40695;SDS011;40425;51.102;17.208;2023-04-07T20:42:29;19.20;;;13.57;;
40695;SDS011;40425;51.102;17.208;2023-04-07T20:47:30;18.83;;;14.27;;
40695;SDS011;40425;51.102;17.208;2023-04-07T20:52:34;20.80;;;14.57;;
40695;SDS011;40425;51.102;17.208;2023-04-07T20:57:40;21.57;;;14.93;;
40695;SDS011;40425;51.102;17.208;2023-04-07T21:02:41;21.33;;;14.53;;
40695;SDS011;40425;51.102;17.208;2023-04-07T21:07:42;19.87;;;14.23;;
40695;SDS011;40425;51.102;17.208;2023-04-07T21:12:43;20.17;;;14.00;;
40695;SDS011;40425;51.102;17.208;2023-04-07T21:17:44;18.27;;;13.70;;
40695;SDS011;40425;51.102;17.208;2023-04-07T21:22:45;17.77;;;12.73;;
40695;SDS011;40425;51.102;17.208;2023-04-07T21:27:46;21.30;;;14.70;;
40695;SDS011;40425;51.102;17.208;2023-04-07T21:32:47;20.17;;;15.23;;
40695;SDS011;40425;51.102;17.208;2023-04-07T21:37:48;20.40;;;13.80;;
40695;SDS011;40425;51.102;17.208;2023-04-07T21:42:48;20.67;;;14.53;;
40695;SDS011;40425;51.102;17.208;2023-04-07T21:47:51;21.83;;;14.60;;
40695;SDS011;40425;51.102;17.208;2023-04-07T21:52:51;21.43;;;14.47;;
40695;SDS011;40425;51.102;17.208;2023-04-07T21:57:52;21.27;;;14.60;;
40695;SDS011;40425;51.102;17.208;2023-04-07T22:02:53;19.70;;;14.77;;
40695;SDS011;40425;51.102;17.208;2023-04-07T22:07:54;24.33;;;13.70;;
40695;SDS011;40425;51.102;17.208;2023-04-07T22:12:55;19.17;;;13.77;;
40695;SDS011;40425;51.102;17.208;2023-04-07T22:17:56;22.33;;;15.70;;
40695;SDS011;40425;51.102;17.208;2023-04-07T22:22:57;18.57;;;13.70;;
40695;SDS011;40425;51.102;17.208;2023-04-07T22:27:58;21.57;;;14.33;;
40695;SDS011;40425;51.102;17.208;2023-04-07T22:32:59;21.53;;;14.93;;
40695;SDS011;40425;51.102;17.208;2023-04-07T22:38:00;20.07;;;14.67;;
40695;SDS011;40425;51.102;17.208;2023-04-07T22:43:01;29.00;;;18.60;;
40695;SDS011;40425;51.102;17.208;2023-04-07T22:48:01;23.37;;;16.67;;
40695;SDS011;40425;51.102;17.208;2023-04-07T22:53:02;24.43;;;16.70;;
40695;SDS011;40425;51.102;17.208;2023-04-07T22:58:03;24.13;;;16.87;;
40695;SDS011;40425;51.102;17.208;2023-04-07T23:03:04;19.83;;;15.17;;
40695;SDS011;40425;51.102;17.208;2023-04-07T23:08:06;17.33;;;13.33;;
40695;SDS011;40425;51.102;17.208;2023-04-07T23:13:07;20.50;;;14.47;;
40695;SDS011;40425;51.102;17.208;2023-04-07T23:18:08;22.03;;;14.87;;
40695;SDS011;40425;51.102;17.208;2023-04-07T23:23:09;19.97;;;13.20;;
40695;SDS011;40425;51.102;17.208;2023-04-07T23:28:10;19.43;;;13.50;;
40695;SDS011;40425;51.102;17.208;2023-04-07T23:33:11;16.53;;;12.90;;
40695;SDS011;40425;51.102;17.208;2023-04-07T23:38:11;22.10;;;15.27;;
40695;SDS011;40425;51.102;17.208;2023-04-07T23:43:12;20.77;;;14.07;;
40695;SDS011;40425;51.102;17.208;2023-04-07T23:48:13;22.53;;;16.17;;
40695;SDS011;40425;51.102;17.208;2023-04-07T23:53:15;23.57;;;14.87;;
40695;SDS011;40425;51.102;17.208;2023-04-07T23:58:16;21.73;;;15.40;;
